This is the latest recevied weather packets stored in our database for station/object AC1IX. If no packets are shown the sender has not sent any weather packets the latest 10 day(s).
| Time | Temp. | Humidity | Pressure | Rain* | Wind** | Luminosity | Snow |
|---|---|---|---|---|---|---|---|
| 1777871212 | 6.67° C | 74% | 1011.6 hPa | 0 mm | - | 0 W/m² | - |
| 1777870909 | 6.67° C | 73% | 1011.6 hPa | 0 mm | - | 0 W/m² | - |
| 1777870606 | 6.67° C | 71% | 1011.7 hPa | 0 mm | - | 0 W/m² | - |
| 1777870306 | 6.67° C | 71% | 1011.8 hPa | 0 mm | - | 0 W/m² | - |
| 1777870004 | 6.67° C | 69% | 1011.9 hPa | 0 mm | - | 0 W/m² | - |
| 1777869700 | 7.22° C | 68% | 1011.8 hPa | 0 mm | - | 0 W/m² | - |
| 1777869398 | 7.22° C | 68% | 1011.6 hPa | 0 mm | - | 0 W/m² | - |
| 1777869095 | 7.22° C | 65% | 1011.8 hPa | 0 mm | - | 0 W/m² | - |
| 1777868792 | 7.22° C | 65% | 1011.6 hPa | 0 mm | - | 0 W/m² | - |
| 1777868489 | 7.22° C | 65% | 1011.5 hPa | 0 mm | - | 0 W/m² | - |
| 1777868184 | 7.22° C | 63% | 1011.7 hPa | 0 mm | - | 0 W/m² | - |
| 1777867881 | 7.78° C | 64% | 1011.4 hPa | 0 mm | - | 0 W/m² | - |
| 1777867578 | 7.22° C | 63% | 1011.3 hPa | 0 mm | - | 0 W/m² | - |
| 1777867275 | 7.22° C | 64% | 1011.6 hPa | 0 mm | - | 0 W/m² | - |
| 1777866972 | 7.22° C | 64% | 1011.2 hPa | 0 mm | - | 0 W/m² | - |
| 1777866668 | 7.22° C | 64% | 1011.3 hPa | 0 mm | - | 0 W/m² | - |
| 1777866063 | 7.22° C | 61% | 1011.4 hPa | 0 mm | - | 0 W/m² | - |
| 1777865761 | 7.22° C | 63% | 1011.3 hPa | 0 mm | - | 0 W/m² | - |
| 1777865458 | 7.22° C | 62% | 1011.2 hPa | 0 mm | - | 0 W/m² | - |
| 1777865155 | 7.22° C | 61% | 1011.4 hPa | 0 mm | - | 0 W/m² | - |
| 1777864852 | 7.22° C | 61% | 1011.2 hPa | 0 mm | - | 0 W/m² | - |
| 1777846666 | 11.11° C | 42% | 1008.9 hPa | 0 mm | - | 72 W/m² | - |
| 1777846064 | 10.56° C | 42% | 1008.9 hPa | 0 mm | - | 70 W/m² | - |
| 1777845453 | 10.56° C | 41% | 1009 hPa | 0 mm | - | 57 W/m² | - |
| 1777845150 | 11.11° C | 42% | 1009 hPa | 0 mm | - | 59 W/m² | - |
* Rain latest hour (hover to see other rain measurements)
** Current wind speed in m/s (hover to see current wind gust speed)